createdAt,value
2022-09-07T00:02:13.411Z,46.06
2022-09-07T00:19:05.104Z,45.96
2022-09-07T00:35:56.468Z,46.60
2022-09-07T00:52:49.016Z,46.83
2022-09-07T01:09:41.537Z,47.10
2022-09-07T01:26:58.027Z,47.30
2022-09-07T01:43:54.915Z,47.79
2022-09-07T02:00:47.701Z,47.77
2022-09-07T02:17:40.515Z,47.96
2022-09-07T02:34:30.005Z,48.14
2022-09-07T02:51:29.061Z,48.10
2022-09-07T03:08:23.125Z,48.56
2022-09-07T03:25:12.925Z,48.64
2022-09-07T03:42:01.021Z,49.28
2022-09-07T03:58:51.655Z,49.67
2022-09-07T04:15:43.770Z,49.78
2022-09-07T04:32:32.510Z,50.16
2022-09-07T04:49:22.913Z,49.73
2022-09-07T05:06:14.748Z,50.34
2022-09-07T05:23:03.953Z,50.06
2022-09-07T05:39:57.103Z,49.30
2022-09-07T05:56:48.422Z,49.65
2022-09-07T06:13:37.642Z,50.25
2022-09-07T06:30:26.116Z,49.61
2022-09-07T06:47:16.817Z,48.22
2022-09-07T07:04:06.921Z,47.39
2022-09-07T07:20:55.544Z,46.65
2022-09-07T07:37:44.463Z,46.50
2022-09-07T07:54:34.317Z,45.44
2022-09-07T08:11:27.020Z,44.70
2022-09-07T08:28:17.784Z,44.61
2022-09-07T08:45:12.199Z,44.33
2022-09-07T09:19:43.395Z,42.49
2022-09-07T09:36:38.020Z,42.54
2022-09-07T09:53:32.744Z,42.55
2022-09-07T10:10:24.405Z,42.06
2022-09-07T10:27:35.608Z,41.54
2022-09-07T10:44:35.401Z,41.18
2022-09-07T11:01:33.778Z,40.58
2022-09-07T11:18:27.931Z,40.48
2022-09-07T11:35:32.938Z,40.23
2022-09-07T11:52:33.815Z,39.61
2022-09-07T12:09:39.992Z,40.49
2022-09-07T12:26:55.151Z,40.07
2022-09-07T12:44:11.341Z,39.54
2022-09-07T13:01:16.191Z,40.03
2022-09-07T13:18:08.059Z,39.53
2022-09-07T13:35:12.929Z,39.10
2022-09-07T13:52:08.303Z,38.87
2022-09-07T14:09:02.175Z,39.57
2022-09-07T14:26:22.288Z,38.62
2022-09-07T14:43:32.271Z,38.55
2022-09-07T15:00:33.710Z,38.87
2022-09-07T15:17:48.120Z,38.93
2022-09-07T15:34:37.145Z,39.38
2022-09-07T16:08:36.372Z,39.03
2022-09-07T16:25:25.609Z,38.12
2022-09-07T16:42:13.852Z,38.52
2022-09-07T16:59:10.071Z,38.61
2022-09-07T17:16:10.290Z,38.01
2022-09-07T17:32:59.608Z,38.30
2022-09-07T17:49:48.033Z,38.78
2022-09-07T18:06:36.778Z,38.70
2022-09-07T18:23:25.827Z,38.98
2022-09-07T18:40:15.869Z,39.19
2022-09-07T18:57:07.051Z,39.67
2022-09-07T19:14:00.271Z,39.81
2022-09-07T19:30:48.156Z,39.97
2022-09-07T19:47:37.222Z,40.59
2022-09-07T20:04:25.452Z,40.11
2022-09-07T20:21:16.380Z,40.08
2022-09-07T20:38:07.442Z,40.53
2022-09-07T20:54:55.478Z,40.42
2022-09-07T21:11:46.147Z,40.33
2022-09-07T21:28:38.062Z,40.74
2022-09-07T21:45:25.969Z,41.27
2022-09-07T22:02:14.893Z,41.73
2022-09-07T22:19:02.914Z,41.89
2022-09-07T22:35:51.072Z,42.09
2022-09-07T22:52:39.067Z,42.58
2022-09-07T23:09:27.253Z,43.30
2022-09-07T23:26:15.958Z,44.10
2022-09-07T23:43:04.103Z,44.81
2022-09-07T23:59:52.220Z,45.08
